sensor_id;sensor_type;location;lat;lon;timestamp;pressure;altitude;pressure_sealevel;temperature;humidity
74621;BME280;75998;47.550;19.254;2024-03-07T00:01:43;98971.19;;;5.65;82.00
74621;BME280;75998;47.550;19.254;2024-03-07T00:04:09;99042.72;;;6.23;81.56
74621;BME280;75998;47.550;19.254;2024-03-07T00:06:34;99075.13;;;6.31;81.28
74621;BME280;75998;47.550;19.254;2024-03-07T00:09:03;99163.53;;;6.80;80.44
74621;BME280;75998;47.550;19.254;2024-03-07T00:11:38;99013.34;;;5.69;80.42
74621;BME280;75998;47.550;19.254;2024-03-07T00:14:15;99088.66;;;6.03;79.76
74621;BME280;75998;47.550;19.254;2024-03-07T00:16:44;99092.31;;;6.34;79.23
74621;BME280;75998;47.550;19.254;2024-03-07T00:19:17;99118.91;;;6.39;79.87
74621;BME280;75998;47.550;19.254;2024-03-07T00:21:43;99132.06;;;6.52;79.72
74621;BME280;75998;47.550;19.254;2024-03-07T00:24:14;99082.63;;;6.20;78.58
74621;BME280;75998;47.550;19.254;2024-03-07T00:26:39;99162.75;;;6.78;78.35
74621;BME280;75998;47.550;19.254;2024-03-07T00:29:10;99168.06;;;6.77;77.85
74621;BME280;75998;47.550;19.254;2024-03-07T00:31:42;99126.97;;;6.50;77.63
74621;BME280;75998;47.550;19.254;2024-03-07T00:34:13;99163.84;;;6.74;77.37
74621;BME280;75998;47.550;19.254;2024-03-07T00:36:47;99145.28;;;6.65;76.76
74621;BME280;75998;47.550;19.254;2024-03-07T00:39:16;99083.22;;;6.25;76.87
74621;BME280;75998;47.550;19.254;2024-03-07T00:41:43;99128.34;;;6.57;76.41
74621;BME280;75998;47.550;19.254;2024-03-07T00:44:12;99076.22;;;6.27;75.75
74621;BME280;75998;47.550;19.254;2024-03-07T00:46:40;99082.63;;;6.20;76.24
74621;BME280;75998;47.550;19.254;2024-03-07T00:49:09;99105.06;;;6.39;75.70
74621;BME280;75998;47.550;19.254;2024-03-07T00:51:34;99135.06;;;6.44;76.40
74621;BME280;75998;47.550;19.254;2024-03-07T00:54:00;99107.25;;;6.29;76.00
74621;BME280;75998;47.550;19.254;2024-03-07T00:56:29;99166.91;;;6.65;75.86
74621;BME280;75998;47.550;19.254;2024-03-07T00:59:02;99160.28;;;6.59;76.06
74621;BME280;75998;47.550;19.254;2024-03-07T01:01:43;99141.91;;;6.45;75.72
74621;BME280;75998;47.550;19.254;2024-03-07T01:04:09;99162.03;;;6.59;75.38
74621;BME280;75998;47.550;19.254;2024-03-07T01:06:35;99164.94;;;6.53;75.44
74621;BME280;75998;47.550;19.254;2024-03-07T01:09:17;99163.75;;;6.58;75.90
74621;BME280;75998;47.550;19.254;2024-03-07T01:11:48;98955.34;;;5.17;75.72
74621;BME280;75998;47.550;19.254;2024-03-07T01:14:16;99102.34;;;6.05;76.09
74621;BME280;75998;47.550;19.254;2024-03-07T01:16:44;99036.78;;;5.67;75.62
74621;BME280;75998;47.550;19.254;2024-03-07T01:19:10;99174.38;;;6.54;75.13
74621;BME280;75998;47.550;19.254;2024-03-07T01:21:51;99121.75;;;6.16;75.82
74621;BME280;75998;47.550;19.254;2024-03-07T01:24:19;99163.00;;;6.39;75.08
74621;BME280;75998;47.550;19.254;2024-03-07T01:26:49;99145.28;;;6.30;75.80
74621;BME280;75998;47.550;19.254;2024-03-07T01:29:17;99074.44;;;5.93;75.60
74621;BME280;75998;47.550;19.254;2024-03-07T01:32:02;99072.81;;;5.91;75.41
74621;BME280;75998;47.550;19.254;2024-03-07T01:34:31;98943.50;;;5.12;75.80
74621;BME280;75998;47.550;19.254;2024-03-07T01:37:00;99116.66;;;6.14;75.07
74621;BME280;75998;47.550;19.254;2024-03-07T01:39:28;98980.50;;;5.33;75.69
74621;BME280;75998;47.550;19.254;2024-03-07T01:42:04;99124.81;;;6.24;75.45
74621;BME280;75998;47.550;19.254;2024-03-07T01:44:32;99136.41;;;6.17;75.36
74621;BME280;75998;47.550;19.254;2024-03-07T01:47:02;99168.19;;;6.39;75.10
74621;BME280;75998;47.550;19.254;2024-03-07T01:49:30;99076.06;;;5.77;75.17
74621;BME280;75998;47.550;19.254;2024-03-07T01:51:59;99151.47;;;6.27;74.40
74621;BME280;75998;47.550;19.254;2024-03-07T01:54:30;99151.69;;;6.23;75.04
74621;BME280;75998;47.550;19.254;2024-03-07T01:56:58;99136.34;;;6.18;75.69
74621;BME280;75998;47.550;19.254;2024-03-07T01:59:24;99159.88;;;6.32;74.70
74621;BME280;75998;47.550;19.254;2024-03-07T02:01:56;98939.69;;;5.02;74.85
74621;BME280;75998;47.550;19.254;2024-03-07T02:04:30;98949.81;;;5.06;75.21
74621;BME280;75998;47.550;19.254;2024-03-07T02:06:56;99172.38;;;6.42;75.42
74621;BME280;75998;47.550;19.254;2024-03-07T02:09:29;99168.13;;;6.41;75.24
74621;BME280;75998;47.550;19.254;2024-03-07T02:12:03;99155.53;;;6.33;75.07
74621;BME280;75998;47.550;19.254;2024-03-07T02:14:32;99144.47;;;6.29;75.14
74621;BME280;75998;47.550;19.254;2024-03-07T02:17:07;99086.34;;;5.97;75.65
74621;BME280;75998;47.550;19.254;2024-03-07T02:19:44;99111.22;;;6.01;75.82
74621;BME280;75998;47.550;19.254;2024-03-07T02:22:12;99153.66;;;6.35;75.69
74621;BME280;75998;47.550;19.254;2024-03-07T02:24:45;99071.28;;;5.86;74.65
74621;BME280;75998;47.550;19.254;2024-03-07T02:27:14;99085.75;;;5.91;75.05
74621;BME280;75998;47.550;19.254;2024-03-07T02:29:54;99116.66;;;6.14;74.80
74621;BME280;75998;47.550;19.254;2024-03-07T02:32:20;99061.25;;;5.79;75.10
74621;BME280;75998;47.550;19.254;2024-03-07T02:34:49;99031.09;;;5.59;74.66
74621;BME280;75998;47.550;19.254;2024-03-07T02:37:21;99155.03;;;6.42;75.05
74621;BME280;75998;47.550;19.254;2024-03-07T02:39:48;99028.34;;;5.62;74.69
74621;BME280;75998;47.550;19.254;2024-03-07T02:42:19;99122.47;;;6.19;75.02
74621;BME280;75998;47.550;19.254;2024-03-07T02:44:47;99137.25;;;6.34;74.79
74621;BME280;75998;47.550;19.254;2024-03-07T02:47:18;99132.75;;;6.21;74.92
74621;BME280;75998;47.550;19.254;2024-03-07T02:49:55;99152.53;;;6.41;74.79
74621;BME280;75998;47.550;19.254;2024-03-07T02:52:29;98976.91;;;5.18;75.37
74621;BME280;75998;47.550;19.254;2024-03-07T02:55:02;99143.41;;;6.15;75.20
74621;BME280;75998;47.550;19.254;2024-03-07T02:57:41;99059.41;;;5.63;75.24
74621;BME280;75998;47.550;19.254;2024-03-07T03:00:12;99126.47;;;5.88;75.61
74621;BME280;75998;47.550;19.254;2024-03-07T03:02:50;99103.66;;;5.78;75.40
74621;BME280;75998;47.550;19.254;2024-03-07T03:05:23;99136.38;;;5.80;75.00
74621;BME280;75998;47.550;19.254;2024-03-07T03:07:52;99033.81;;;5.19;75.34
74621;BME280;75998;47.550;19.254;2024-03-07T03:10:30;98998.47;;;4.81;76.19
74621;BME280;75998;47.550;19.254;2024-03-07T03:13:01;99105.56;;;5.55;75.95
74621;BME280;75998;47.550;19.254;2024-03-07T03:15:36;99160.56;;;5.81;76.30
74621;BME280;75998;47.550;19.254;2024-03-07T03:18:14;99158.31;;;5.73;76.34
74621;BME280;75998;47.550;19.254;2024-03-07T03:20:46;99123.97;;;5.49;76.47
74621;BME280;75998;47.550;19.254;2024-03-07T03:23:16;99158.66;;;5.65;76.94
74621;BME280;75998;47.550;19.254;2024-03-07T03:25:42;99030.81;;;4.91;76.50
74621;BME280;75998;47.550;19.254;2024-03-07T03:28:11;99106.63;;;5.13;76.46
74621;BME280;75998;47.550;19.254;2024-03-07T03:30:42;99034.84;;;4.78;76.59
74621;BME280;75998;47.550;19.254;2024-03-07T03:33:16;99088.75;;;5.07;75.77
74621;BME280;75998;47.550;19.254;2024-03-07T03:35:53;99024.66;;;4.54;75.75
74621;BME280;75998;47.550;19.254;2024-03-07T03:38:25;99021.59;;;4.65;76.28
74621;BME280;75998;47.550;19.254;2024-03-07T03:41:02;99158.72;;;5.45;75.47
74621;BME280;75998;47.550;19.254;2024-03-07T03:43:38;99096.41;;;5.10;75.87
74621;BME280;75998;47.550;19.254;2024-03-07T03:46:03;99020.69;;;4.66;75.46
74621;BME280;75998;47.550;19.254;2024-03-07T03:48:32;99135.69;;;5.39;74.74
74621;BME280;75998;47.550;19.254;2024-03-07T03:50:58;99160.13;;;5.52;74.29
74621;BME280;75998;47.550;19.254;2024-03-07T03:53:27;99102.03;;;5.00;75.19
74621;BME280;75998;47.550;19.254;2024-03-07T03:55:52;99109.34;;;5.10;75.21
74621;BME280;75998;47.550;19.254;2024-03-07T03:58:26;99158.81;;;5.44;75.12
74621;BME280;75998;47.550;19.254;2024-03-07T04:00:55;99148.63;;;5.39;75.06
74621;BME280;75998;47.550;19.254;2024-03-07T04:03:34;99153.19;;;5.34;74.96
74621;BME280;75998;47.550;19.254;2024-03-07T04:06:03;99132.19;;;5.21;75.18
74621;BME280;75998;47.550;19.254;2024-03-07T04:08:41;99160.88;;;5.35;75.80
74621;BME280;75998;47.550;19.254;2024-03-07T04:11:07;99176.88;;;5.45;75.45
74621;BME280;75998;47.550;19.254;2024-03-07T04:13:37;99173.72;;;5.38;75.51
74621;BME280;75998;47.550;19.254;2024-03-07T04:16:09;99112.53;;;4.97;75.84
74621;BME280;75998;47.550;19.254;2024-03-07T04:18:37;99167.91;;;5.33;75.52
74621;BME280;75998;47.550;19.254;2024-03-07T04:21:06;99151.97;;;5.22;75.44
74621;BME280;75998;47.550;19.254;2024-03-07T04:23:39;99123.09;;;4.92;76.40
74621;BME280;75998;47.550;19.254;2024-03-07T04:26:12;99161.16;;;5.10;76.09
74621;BME280;75998;47.550;19.254;2024-03-07T04:28:40;99127.34;;;4.93;76.10
74621;BME280;75998;47.550;19.254;2024-03-07T04:31:21;99147.53;;;5.05;76.77
74621;BME280;75998;47.550;19.254;2024-03-07T04:33:58;99186.75;;;5.16;76.85
74621;BME280;75998;47.550;19.254;2024-03-07T04:36:28;99088.56;;;4.52;76.25
74621;BME280;75998;47.550;19.254;2024-03-07T04:38:56;99009.69;;;4.01;76.37
74621;BME280;75998;47.550;19.254;2024-03-07T04:41:30;99190.84;;;5.02;76.84
74621;BME280;75998;47.550;19.254;2024-03-07T04:44:08;99183.16;;;5.00;76.58
74621;BME280;75998;47.550;19.254;2024-03-07T04:46:46;99056.41;;;4.17;76.69
74621;BME280;75998;47.550;19.254;2024-03-07T04:49:15;99145.94;;;4.62;76.92
74621;BME280;75998;47.550;19.254;2024-03-07T04:51:55;99179.56;;;4.84;77.19
74621;BME280;75998;47.550;19.254;2024-03-07T04:54:30;99114.56;;;4.49;77.19
74621;BME280;75998;47.550;19.254;2024-03-07T04:57:01;99114.69;;;4.46;77.22
74621;BME280;75998;47.550;19.254;2024-03-07T05:02:09;99135.47;;;4.65;76.96
74621;BME280;75998;47.550;19.254;2024-03-07T05:04:39;99153.25;;;4.72;76.96
74621;BME280;75998;47.550;19.254;2024-03-07T05:07:22;99200.13;;;5.07;77.26
74621;BME280;75998;47.550;19.254;2024-03-07T05:09:53;99122.59;;;4.63;77.16
74621;BME280;75998;47.550;19.254;2024-03-07T05:12:34;99136.09;;;4.70;77.32
74621;BME280;75998;47.550;19.254;2024-03-07T05:15:09;99140.41;;;4.71;77.47
74621;BME280;75998;47.550;19.254;2024-03-07T05:17:39;99208.53;;;5.12;77.00
74621;BME280;75998;47.550;19.254;2024-03-07T05:20:13;99199.34;;;5.05;76.90
74621;BME280;75998;47.550;19.254;2024-03-07T05:22:47;99145.09;;;4.82;76.19
74621;BME280;75998;47.550;19.254;2024-03-07T05:25:24;99163.69;;;4.91;76.06
74621;BME280;75998;47.550;19.254;2024-03-07T05:27:55;99133.22;;;4.78;75.85
74621;BME280;75998;47.550;19.254;2024-03-07T05:30:29;99208.00;;;5.25;75.93
74621;BME280;75998;47.550;19.254;2024-03-07T05:32:54;99169.31;;;5.01;75.21
74621;BME280;75998;47.550;19.254;2024-03-07T05:35:26;99205.28;;;5.28;75.52
74621;BME280;75998;47.550;19.254;2024-03-07T05:37:55;99154.88;;;4.95;75.25
74621;BME280;75998;47.550;19.254;2024-03-07T05:40:22;99164.97;;;5.02;74.96
74621;BME280;75998;47.550;19.254;2024-03-07T05:42:51;99211.94;;;5.33;75.35
74621;BME280;75998;47.550;19.254;2024-03-07T05:45:18;99217.97;;;5.34;74.53
74621;BME280;75998;47.550;19.254;2024-03-07T05:47:44;99116.97;;;4.74;74.17
74621;BME280;75998;47.550;19.254;2024-03-07T05:50:17;99215.56;;;5.29;74.04
74621;BME280;75998;47.550;19.254;2024-03-07T05:52:44;99199.44;;;5.23;73.68
74621;BME280;75998;47.550;19.254;2024-03-07T05:55:10;99217.06;;;5.35;74.33
74621;BME280;75998;47.550;19.254;2024-03-07T05:57:46;99199.31;;;5.26;74.69
74621;BME280;75998;47.550;19.254;2024-03-07T06:00:13;99046.13;;;4.36;74.77
74621;BME280;75998;47.550;19.254;2024-03-07T06:02:45;99201.28;;;5.21;74.18
74621;BME280;75998;47.550;19.254;2024-03-07T06:05:11;99114.38;;;4.74;73.96
74621;BME280;75998;47.550;19.254;2024-03-07T06:07:43;99213.06;;;5.28;73.97
74621;BME280;75998;47.550;19.254;2024-03-07T06:10:08;99213.69;;;5.33;73.93
74621;BME280;75998;47.550;19.254;2024-03-07T06:12:39;99229.66;;;5.42;73.62
74621;BME280;75998;47.550;19.254;2024-03-07T06:15:16;99206.47;;;5.21;73.87
74621;BME280;75998;47.550;19.254;2024-03-07T06:17:45;99234.00;;;5.42;72.56
74621;BME280;75998;47.550;19.254;2024-03-07T06:20:14;99226.81;;;5.49;72.97
74621;BME280;75998;47.550;19.254;2024-03-07T06:22:50;99134.22;;;4.94;72.85
74621;BME280;75998;47.550;19.254;2024-03-07T06:25:23;99234.41;;;5.53;72.21
74621;BME280;75998;47.550;19.254;2024-03-07T06:28:06;99228.22;;;5.56;72.06
74621;BME280;75998;47.550;19.254;2024-03-07T06:30:43;99037.16;;;4.24;72.15
74621;BME280;75998;47.550;19.254;2024-03-07T06:33:12;99170.91;;;5.24;71.79
74621;BME280;75998;47.550;19.254;2024-03-07T06:35:48;99125.53;;;4.95;71.97
74621;BME280;75998;47.550;19.254;2024-03-07T06:38:14;99213.09;;;5.47;71.43
74621;BME280;75998;47.550;19.254;2024-03-07T06:40:44;99233.13;;;5.62;71.03
74621;BME280;75998;47.550;19.254;2024-03-07T06:43:10;99229.69;;;5.61;71.21
74621;BME280;75998;47.550;19.254;2024-03-07T06:45:42;99195.28;;;5.39;70.66
74621;BME280;75998;47.550;19.254;2024-03-07T06:48:10;99233.06;;;5.63;70.65
74621;BME280;75998;47.550;19.254;2024-03-07T06:50:39;99207.78;;;5.50;70.86
74621;BME280;75998;47.550;19.254;2024-03-07T06:53:08;99240.84;;;5.63;70.83
74621;BME280;75998;47.550;19.254;2024-03-07T06:55:37;99222.84;;;5.60;70.64
74621;BME280;75998;47.550;19.254;2024-03-07T06:58:09;99172.78;;;5.21;70.06
74621;BME280;75998;47.550;19.254;2024-03-07T07:00:35;99262.78;;;5.75;69.86
74621;BME280;75998;47.550;19.254;2024-03-07T07:03:04;99175.59;;;5.35;70.62
74621;BME280;75998;47.550;19.254;2024-03-07T07:05:41;99216.88;;;5.58;70.17
74621;BME280;75998;47.550;19.254;2024-03-07T07:08:08;99165.75;;;5.23;69.65
74621;BME280;75998;47.550;19.254;2024-03-07T07:10:41;99272.84;;;5.83;70.60
74621;BME280;75998;47.550;19.254;2024-03-07T07:13:11;99227.25;;;5.58;70.20
74621;BME280;75998;47.550;19.254;2024-03-07T07:15:38;99122.03;;;4.96;70.43
74621;BME280;75998;47.550;19.254;2024-03-07T07:18:09;99142.81;;;5.15;69.82
74621;BME280;75998;47.550;19.254;2024-03-07T07:20:36;99280.41;;;5.87;69.85
74621;BME280;75998;47.550;19.254;2024-03-07T07:23:04;99178.28;;;5.33;69.31
74621;BME280;75998;47.550;19.254;2024-03-07T07:25:30;99169.72;;;5.31;69.44
74621;BME280;75998;47.550;19.254;2024-03-07T07:27:55;99174.81;;;5.33;69.45
74621;BME280;75998;47.550;19.254;2024-03-07T07:30:26;99135.13;;;5.13;69.45
74621;BME280;75998;47.550;19.254;2024-03-07T07:32:53;99246.91;;;5.83;69.13
74621;BME280;75998;47.550;19.254;2024-03-07T07:35:19;99179.47;;;5.45;69.75
74621;BME280;75998;47.550;19.254;2024-03-07T07:37:47;99276.16;;;6.05;69.77
74621;BME280;75998;47.550;19.254;2024-03-07T07:40:15;99145.13;;;5.21;69.79
74621;BME280;75998;47.550;19.254;2024-03-07T07:42:44;99279.56;;;6.06;69.47
74621;BME280;75998;47.550;19.254;2024-03-07T07:45:15;99245.91;;;5.67;68.64
74621;BME280;75998;47.550;19.254;2024-03-07T07:47:48;99270.94;;;5.86;68.23
74621;BME280;75998;47.550;19.254;2024-03-07T07:50:19;99250.13;;;5.88;68.61
74621;BME280;75998;47.550;19.254;2024-03-07T07:52:57;99276.28;;;6.02;68.89
74621;BME280;75998;47.550;19.254;2024-03-07T07:55:27;99190.75;;;5.44;69.01
74621;BME280;75998;47.550;19.254;2024-03-07T07:57:57;99288.28;;;6.05;69.48
74621;BME280;75998;47.550;19.254;2024-03-07T08:00:24;99260.94;;;5.98;68.73
74621;BME280;75998;47.550;19.254;2024-03-07T08:03:06;99290.47;;;6.14;69.25
74621;BME280;75998;47.550;19.254;2024-03-07T08:05:32;99237.22;;;5.86;67.86
74621;BME280;75998;47.550;19.254;2024-03-07T08:08:06;99301.31;;;6.22;68.73
74621;BME280;75998;47.550;19.254;2024-03-07T08:10:40;99151.78;;;5.27;69.02
74621;BME280;75998;47.550;19.254;2024-03-07T08:13:06;99235.19;;;5.74;68.66
74621;BME280;75998;47.550;19.254;2024-03-07T08:15:35;99296.00;;;6.25;68.65
74621;BME280;75998;47.550;19.254;2024-03-07T08:18:04;99293.69;;;6.19;69.36
74621;BME280;75998;47.550;19.254;2024-03-07T08:20:35;99185.44;;;5.47;68.56
74621;BME280;75998;47.550;19.254;2024-03-07T08:23:04;99254.66;;;6.03;70.09
74621;BME280;75998;47.550;19.254;2024-03-07T08:25:30;99309.31;;;6.18;70.13
74621;BME280;75998;47.550;19.254;2024-03-07T08:28:01;99284.56;;;6.10;70.04
74621;BME280;75998;47.550;19.254;2024-03-07T08:30:26;99136.66;;;5.17;70.25
74621;BME280;75998;47.550;19.254;2024-03-07T08:32:57;99279.53;;;6.07;69.76
74621;BME280;75998;47.550;19.254;2024-03-07T08:35:24;99252.19;;;6.00;69.68
74621;BME280;75998;47.550;19.254;2024-03-07T08:37:52;99311.41;;;6.28;69.43
74621;BME280;75998;47.550;19.254;2024-03-07T08:40:31;99276.44;;;6.18;69.55
74621;BME280;75998;47.550;19.254;2024-03-07T08:43:03;99326.84;;;6.50;69.51
74621;BME280;75998;47.550;19.254;2024-03-07T08:45:28;99185.97;;;5.73;69.69
74621;BME280;75998;47.550;19.254;2024-03-07T08:47:58;99199.44;;;5.62;67.94
74621;BME280;75998;47.550;19.254;2024-03-07T08:50:24;99255.41;;;6.05;68.93
74621;BME280;75998;47.550;19.254;2024-03-07T08:52:51;99332.28;;;6.46;68.31
74621;BME280;75998;47.550;19.254;2024-03-07T08:55:19;99179.28;;;5.50;67.86
74621;BME280;75998;47.550;19.254;2024-03-07T08:57:45;99246.72;;;6.06;68.50
74621;BME280;75998;47.550;19.254;2024-03-07T09:00:14;99209.53;;;5.87;67.78
74621;BME280;75998;47.550;19.254;2024-03-07T09:02:53;99280.72;;;6.19;67.55
74621;BME280;75998;47.550;19.254;2024-03-07T09:05:23;99214.59;;;5.90;67.78
74621;BME280;75998;47.550;19.254;2024-03-07T09:07:49;99262.75;;;6.15;67.48
74621;BME280;75998;47.550;19.254;2024-03-07T09:10:20;99262.91;;;6.30;68.25
74621;BME280;75998;47.550;19.254;2024-03-07T09:12:46;99237.88;;;6.10;67.36
74621;BME280;75998;47.550;19.254;2024-03-07T09:15:15;99293.34;;;6.27;66.66
74621;BME280;75998;47.550;19.254;2024-03-07T09:17:42;99234.09;;;5.99;67.36
74621;BME280;75998;47.550;19.254;2024-03-07T09:20:09;99330.88;;;6.75;67.55
74621;BME280;75998;47.550;19.254;2024-03-07T09:22:41;99249.97;;;6.29;67.62
74621;BME280;75998;47.550;19.254;2024-03-07T09:25:10;99182.13;;;5.81;66.96
74621;BME280;75998;47.550;19.254;2024-03-07T09:27:38;99320.34;;;6.78;67.15
74621;BME280;75998;47.550;19.254;2024-03-07T09:30:07;99278.19;;;6.37;67.47
74621;BME280;75998;47.550;19.254;2024-03-07T09:32:41;99222.19;;;5.95;67.09
74621;BME280;75998;47.550;19.254;2024-03-07T09:35:08;99284.34;;;6.53;67.33
74621;BME280;75998;47.550;19.254;2024-03-07T09:37:38;99344.66;;;6.94;66.98
74621;BME280;75998;47.550;19.254;2024-03-07T09:40:05;99224.28;;;6.42;67.62
74621;BME280;75998;47.550;19.254;2024-03-07T09:42:35;99208.47;;;6.29;66.97
74621;BME280;75998;47.550;19.254;2024-03-07T09:45:02;99336.19;;;7.08;66.44
74621;BME280;75998;47.550;19.254;2024-03-07T09:47:29;99355.59;;;7.01;66.87
74621;BME280;75998;47.550;19.254;2024-03-07T09:49:56;99373.53;;;6.88;66.65
74621;BME280;75998;47.550;19.254;2024-03-07T09:52:24;99252.38;;;6.15;66.51
74621;BME280;75998;47.550;19.254;2024-03-07T09:54:51;99349.47;;;6.85;67.26
74621;BME280;75998;47.550;19.254;2024-03-07T09:57:21;99344.69;;;7.12;66.38
74621;BME280;75998;47.550;19.254;2024-03-07T09:59:49;99309.75;;;6.82;65.99
74621;BME280;75998;47.550;19.254;2024-03-07T10:02:19;99354.91;;;6.97;66.98
74621;BME280;75998;47.550;19.254;2024-03-07T10:04:50;99278.94;;;6.75;66.51
74621;BME280;75998;47.550;19.254;2024-03-07T10:07:18;99301.50;;;6.92;65.85
74621;BME280;75998;47.550;19.254;2024-03-07T10:09:44;99316.19;;;6.93;65.51
74621;BME280;75998;47.550;19.254;2024-03-07T10:12:10;99338.19;;;7.03;66.50
74621;BME280;75998;47.550;19.254;2024-03-07T10:14:50;99316.78;;;6.98;65.81
74621;BME280;75998;47.550;19.254;2024-03-07T10:17:16;99236.00;;;6.68;66.36
74621;BME280;75998;47.550;19.254;2024-03-07T10:19:46;99310.59;;;7.18;66.17
74621;BME280;75998;47.550;19.254;2024-03-07T10:22:12;99343.41;;;7.38;65.99
74621;BME280;75998;47.550;19.254;2024-03-07T10:24:37;99269.97;;;6.99;65.88
74621;BME280;75998;47.550;19.254;2024-03-07T10:27:03;99244.34;;;6.92;65.32
74621;BME280;75998;47.550;19.254;2024-03-07T10:29:30;99258.78;;;6.97;64.35
74621;BME280;75998;47.550;19.254;2024-03-07T10:31:55;99302.66;;;7.21;65.21
74621;BME280;75998;47.550;19.254;2024-03-07T10:34:21;99363.53;;;7.69;64.44
74621;BME280;75998;47.550;19.254;2024-03-07T10:36:50;99263.09;;;7.16;65.36
74621;BME280;75998;47.550;19.254;2024-03-07T10:39:19;99280.09;;;7.21;65.70
74621;BME280;75998;47.550;19.254;2024-03-07T10:41:48;99345.53;;;7.82;64.09
74621;BME280;75998;47.550;19.254;2024-03-07T10:44:24;99326.53;;;7.29;64.96
74621;BME280;75998;47.550;19.254;2024-03-07T10:46:55;99357.72;;;7.46;64.55
74621;BME280;75998;47.550;19.254;2024-03-07T10:49:25;99359.75;;;7.74;64.60
74621;BME280;75998;47.550;19.254;2024-03-07T10:52:17;99362.91;;;7.64;64.87
74621;BME280;75998;47.550;19.254;2024-03-07T10:59:56;99360.97;;;7.67;64.80
74621;BME280;75998;47.550;19.254;2024-03-07T11:04:52;99254.28;;;7.01;65.32
74621;BME280;75998;47.550;19.254;2024-03-07T11:07:22;99364.78;;;7.77;65.31
74621;BME280;75998;47.550;19.254;2024-03-07T11:09:52;99308.09;;;7.34;64.96
74621;BME280;75998;47.550;19.254;2024-03-07T11:12:27;99203.63;;;6.75;65.48
74621;BME280;75998;47.550;19.254;2024-03-07T11:14:57;99323.16;;;7.44;65.08
74621;BME280;75998;47.550;19.254;2024-03-07T11:17:28;99323.91;;;7.12;65.24
74621;BME280;75998;47.550;19.254;2024-03-07T11:20:20;99364.06;;;7.41;65.19
74621;BME280;75998;47.550;19.254;2024-03-07T11:22:49;99359.09;;;7.36;65.57
74621;BME280;75998;47.550;19.254;2024-03-07T11:25:19;99339.88;;;7.21;65.80
74621;BME280;75998;47.550;19.254;2024-03-07T11:27:56;99354.19;;;7.47;65.30
74621;BME280;75998;47.550;19.254;2024-03-07T11:30:23;99259.94;;;6.92;65.35
74621;BME280;75998;47.550;19.254;2024-03-07T11:33:01;99279.03;;;7.08;65.81
74621;BME280;75998;47.550;19.254;2024-03-07T11:35:33;99315.13;;;7.32;65.71
74621;BME280;75998;47.550;19.254;2024-03-07T11:38:02;99206.91;;;6.61;66.40
74621;BME280;75998;47.550;19.254;2024-03-07T11:43:13;99358.53;;;7.64;65.25
74621;BME280;75998;47.550;19.254;2024-03-07T11:45:41;99245.50;;;6.86;65.04
74621;BME280;75998;47.550;19.254;2024-03-07T11:48:10;99330.41;;;7.38;65.57
74621;BME280;75998;47.550;19.254;2024-03-07T11:50:53;99353.28;;;7.66;65.02
74621;BME280;75998;47.550;19.254;2024-03-07T11:53:20;99333.53;;;7.44;65.89
74621;BME280;75998;47.550;19.254;2024-03-07T11:55:47;99369.63;;;7.68;64.91
74621;BME280;75998;47.550;19.254;2024-03-07T11:58:20;99282.56;;;7.07;65.49
74621;BME280;75998;47.550;19.254;2024-03-07T12:00:51;99261.78;;;6.90;65.58
74621;BME280;75998;47.550;19.254;2024-03-07T12:03:19;99282.56;;;7.07;66.33
74621;BME280;75998;47.550;19.254;2024-03-07T12:05:49;99265.50;;;6.84;66.01
74621;BME280;75998;47.550;19.254;2024-03-07T12:08:16;99360.38;;;7.45;66.93
74621;BME280;75998;47.550;19.254;2024-03-07T12:10:43;99351.84;;;7.43;66.34
74621;BME280;75998;47.550;19.254;2024-03-07T12:13:12;99294.72;;;7.06;66.53
74621;BME280;75998;47.550;19.254;2024-03-07T12:15:41;99223.03;;;6.68;66.16
74621;BME280;75998;47.550;19.254;2024-03-07T12:18:08;99337.66;;;7.31;66.41
74621;BME280;75998;47.550;19.254;2024-03-07T12:20:37;99349.97;;;7.27;66.27
74621;BME280;75998;47.550;19.254;2024-03-07T12:23:05;99357.09;;;7.41;66.61
74621;BME280;75998;47.550;19.254;2024-03-07T12:25:33;99361.41;;;7.42;66.17
74621;BME280;75998;47.550;19.254;2024-03-07T12:28:21;99357.25;;;7.38;66.93
74621;BME280;75998;47.550;19.254;2024-03-07T12:30:57;99266.75;;;6.94;65.54
74621;BME280;75998;47.550;19.254;2024-03-07T12:33:23;99342.66;;;7.36;65.59
74621;BME280;75998;47.550;19.254;2024-03-07T12:35:53;99331.25;;;7.21;66.57
74621;BME280;75998;47.550;19.254;2024-03-07T12:38:25;99320.84;;;7.38;66.39
74621;BME280;75998;47.550;19.254;2024-03-07T12:41:04;99339.28;;;7.51;66.45
74621;BME280;75998;47.550;19.254;2024-03-07T12:43:34;99337.53;;;7.34;66.86
74621;BME280;75998;47.550;19.254;2024-03-07T12:46:00;99287.47;;;6.96;66.85
74621;BME280;75998;47.550;19.254;2024-03-07T12:48:25;99349.09;;;7.46;66.77
74621;BME280;75998;47.550;19.254;2024-03-07T12:50:52;99328.19;;;7.30;67.72
74621;BME280;75998;47.550;19.254;2024-03-07T12:53:23;99362.16;;;7.62;67.56
74621;BME280;75998;47.550;19.254;2024-03-07T12:55:54;99305.97;;;7.42;67.11
74621;BME280;75998;47.550;19.254;2024-03-07T12:58:20;99297.63;;;7.18;67.66
74621;BME280;75998;47.550;19.254;2024-03-07T13:00:53;99353.50;;;7.61;67.42
74621;BME280;75998;47.550;19.254;2024-03-07T13:03:23;99203.88;;;6.70;67.79
74621;BME280;75998;47.550;19.254;2024-03-07T13:05:53;99285.56;;;7.17;67.38
74621;BME280;75998;47.550;19.254;2024-03-07T13:08:22;99345.09;;;7.39;67.38
74621;BME280;75998;47.550;19.254;2024-03-07T13:10:54;99341.09;;;7.32;68.59
74621;BME280;75998;47.550;19.254;2024-03-07T13:13:23;99280.91;;;7.06;70.03
74621;BME280;75998;47.550;19.254;2024-03-07T13:15:51;99340.34;;;7.47;68.93
74621;BME280;75998;47.550;19.254;2024-03-07T13:18:20;99329.88;;;7.31;68.78
74621;BME280;75998;47.550;19.254;2024-03-07T13:20:45;99331.56;;;7.32;69.49
74621;BME280;75998;47.550;19.254;2024-03-07T13:23:11;99354.50;;;7.41;70.42
74621;BME280;75998;47.550;19.254;2024-03-07T13:25:38;99285.06;;;6.74;70.26
74621;BME280;75998;47.550;19.254;2024-03-07T13:28:09;99374.84;;;7.33;70.68
74621;BME280;75998;47.550;19.254;2024-03-07T13:30:40;99372.00;;;7.38;71.51